Time;durP1;ratioP1;P1;durP2;ratioP2;P2;SDS_P1;SDS_P2;PMS_P1;PMS_P2;Temp;Humidity;BMP_temperature;BMP_pressure;BME280_temperature;BME280_humidity;BME280_pressure;Samples;Min_cycle;Max_cycle;Signal;HPM_P1;HPM_P2
2021/04/29 00:01:27;;;;;;;;;;;;;;;4.01;59.16;100497.57;1806698;79;22528;-64
2021/04/29 00:03:56;;;;;;;;;;;;;;;4.01;59.23;100492.86;1806703;79;20675;-64
2021/04/29 00:06:24;;;;;;;;;;;;;;;4.00;59.29;100492.01;1806676;79;20483;-64
2021/04/29 00:08:53;;;;;;;;;;;;;;;4.01;59.19;100496.28;1806662;79;20189;-64
2021/04/29 00:11:20;;;;;;;;;;;;;;;3.99;59.21;100497.23;1806642;79;20467;-63
2021/04/29 00:13:49;;;;;;;;;;;;;;;3.96;59.41;100496.00;1806689;79;21202;-62
2021/04/29 00:16:17;;;;;;;;;;;;;;;3.94;59.51;100495.19;1806704;79;21817;-62
2021/04/29 00:18:46;;;;;;;;;;;;;;;3.91;59.60;100495.25;1806674;79;20109;-63
2021/04/29 08:33:24;;;;;;;6.90;4.35;;;;;;;17.34;30.04;100488.59;1781081;79;21044;-70
2021/04/29 08:35:54;;;;;;;7.33;4.90;;;;;;;17.23;30.02;100485.09;1774580;78;21057;-65
2021/04/29 08:38:23;;;;;;;10.03;4.53;;;;;;;17.19;30.29;100488.95;1777700;78;21068;-68
2021/04/29 08:40:52;;;;;;;4.85;4.45;;;;;;;17.09;30.50;100487.96;1782635;80;22980;-63
2021/04/29 08:43:21;;;;;;;6.85;4.25;;;;;;;17.00;30.55;100486.86;1779010;80;21531;-60
2021/04/29 08:45:50;;;;;;;7.17;4.17;;;;;;;16.89;30.79;100488.98;1789288;78;21577;-63
2021/04/29 08:48:24;;;;;;;6.47;4.28;;;;;;;16.72;31.09;100480.69;1785048;79;20993;-63
2021/04/29 08:50:55;;;;;;;12.35;4.42;;;;;;;16.58;31.54;100489.56;1791147;79;21554;-66
2021/04/29 08:53:24;;;;;;;4.87;4.03;;;;;;;16.48;31.44;100484.13;1796177;78;21380;-63
2021/04/29 08:55:52;;;;;;;7.12;4.17;;;;;;;16.35;31.71;100484.69;1782790;79;21056;-63
2021/04/29 08:58:21;;;;;;;4.33;3.77;;;;;;;16.34;32.14;100485.16;1778221;79;21655;-64
2021/04/29 09:01:04;;;;;;;4.87;4.20;;;;;;;16.36;31.91;100475.86;1803681;78;21637;-64
2021/04/29 09:03:34;;;;;;;4.95;4.25;;;;;;;16.35;32.15;100478.13;1799481;79;21017;-63
2021/04/29 09:06:05;;;;;;;5.35;4.30;;;;;;;16.27;32.51;100477.36;1776378;80;21568;-64
2021/04/29 09:08:36;;;;;;;5.15;4.30;;;;;;;16.21;32.60;100471.70;1789730;79;21605;-68
2021/04/29 09:11:13;;;;;;;8.25;4.87;;;;;;;16.17;32.87;100472.40;1791818;79;21543;-63
2021/04/29 09:14:03;;;;;;;6.85;4.87;;;;;;;16.14;32.92;100473.09;1783177;79;21372;-64
2021/04/29 09:16:40;;;;;;;9.00;4.72;;;;;;;16.05;33.29;100461.93;1781716;80;21496;-62
2021/04/29 09:19:28;;;;;;;5.55;4.10;;;;;;;16.03;33.90;100459.89;1783333;79;21346;-61
2021/04/29 09:21:58;;;;;;;6.90;4.60;;;;;;;16.03;33.87;100455.47;1783128;80;21152;-64
2021/04/29 09:24:37;;;;;;;6.45;4.90;;;;;;;16.14;34.44;100456.86;1782909;80;21516;-65
2021/04/29 09:27:19;;;;;;;13.45;6.50;;;;;;;16.28;33.47;100452.76;1802085;79;20970;-66
2021/04/29 09:29:59;;;;;;;6.20;5.53;;;;;;;16.36;33.34;100448.73;1808594;78;22149;-64
2021/04/29 09:32:34;;;;;;;5.25;4.72;;;;;;;16.38;33.36;100458.19;1764081;79;39207;-63
2021/04/29 09:35:07;;;;;;;9.25;5.17;;;;;;;16.45;33.98;100452.81;1781588;80;21078;-63
2021/04/29 09:37:37;;;;;;;22.98;10.25;;;;;;;16.56;34.02;100444.98;1732865;81;21186;-66
2021/04/29 09:40:19;;;;;;;15.05;9.78;;;;;;;16.71;34.05;100450.09;1782679;80;20993;-63
2021/04/29 09:42:49;;;;;;;10.70;7.35;;;;;;;16.80;33.86;100448.05;1782595;80;20997;-66
2021/04/29 09:45:28;;;;;;;14.95;6.97;;;;;;;16.78;33.34;100434.21;1811274;78;23442;-63
2021/04/29 09:48:05;;;;;;;10.58;6.65;;;;;;;16.66;33.58;100435.48;1786540;78;21659;-66
2021/04/29 09:50:40;;;;;;;5.72;5.12;;;;;;;16.60;34.10;100433.28;1776444;80;21017;-64
2021/04/29 09:53:12;;;;;;;15.43;7.17;;;;;;;16.58;34.11;100429.09;1776427;80;22476;-65
2021/04/29 09:55:45;;;;;;;15.88;5.53;;;;;;;16.57;33.79;100433.51;1785184;79;21015;-62
2021/04/29 09:58:18;;;;;;;18.25;5.50;;;;;;;16.44;33.54;100424.85;1800262;79;21183;-62
2021/04/29 10:00:52;;;;;;;8.43;5.55;;;;;;;16.24;33.57;100418.93;1780539;79;21005;-62
2021/04/29 10:03:20;;;;;;;9.25;5.10;;;;;;;16.06;33.89;100407.97;1774784;78;21600;-64
2021/04/29 10:05:53;;;;;;;6.75;4.83;;;;;;;15.92;34.38;100407.67;1781382;79;21303;-63
2021/04/29 10:08:26;;;;;;;18.30;5.37;;;;;;;15.85;34.55;100403.81;1782172;78;21002;-64
2021/04/29 10:10:57;;;;;;;6.90;5.40;;;;;;;15.85;34.39;100405.12;1790580;78;22220;-64
2021/04/29 10:13:31;;;;;;;6.50;4.90;;;;;;;15.83;34.07;100401.77;1820178;78;21606;-64
2021/04/29 10:16:01;;;;;;;7.92;5.20;;;;;;;15.76;33.95;100393.97;1820379;78;20988;-61
2021/04/29 10:18:29;;;;;;;6.20;4.37;;;;;;;15.71;34.73;100397.39;1820807;78;21508;-64
2021/04/29 10:20:59;;;;;;;5.72;4.50;;;;;;;15.71;34.89;100395.23;1820888;78;21461;-62
2021/04/29 10:23:28;;;;;;;6.08;5.20;;;;;;;15.75;35.19;100388.34;1820686;78;22225;-63
2021/04/29 10:25:59;;;;;;;10.50;5.67;;;;;;;15.88;35.17;100388.31;1820794;78;21590;-63
2021/04/29 10:28:38;;;;;;;9.50;5.45;;;;;;;16.04;35.16;100378.82;1820768;78;21479;-63
2021/04/29 10:31:25;;;;;;;10.18;6.42;;;;;;;16.06;35.27;100378.23;1820640;78;21016;-64
2021/04/29 10:34:15;;;;;;;8.73;6.00;;;;;;;16.05;35.40;100385.27;1813798;77;21606;-63
2021/04/29 10:36:47;;;;;;;14.58;6.55;;;;;;;15.98;35.14;100374.41;1809922;79;21808;-63
2021/04/29 10:39:18;;;;;;;6.45;5.33;;;;;;;15.95;35.45;100370.69;1809953;79;20993;-62
2021/04/29 10:42:07;;;;;;;6.75;5.53;;;;;;;15.97;35.63;100363.53;1810162;79;20993;-62
2021/04/29 10:44:44;;;;;;;11.70;5.95;;;;;;;15.93;35.88;100360.77;1775511;79;21187;-63
2021/04/29 10:47:28;;;;;;;7.40;4.90;;;;;;;15.86;35.81;100362.16;1771484;81;21787;-63
2021/04/29 10:50:11;;;;;;;6.47;5.35;;;;;;;15.86;36.33;100356.91;1772828;80;22173;-64
2021/04/29 10:52:57;;;;;;;8.58;5.17;;;;;;;15.90;35.95;100353.11;1776055;80;20954;-62
2021/04/29 10:55:30;;;;;;;6.65;5.15;;;;;;;15.84;36.20;100344.84;1786593;78;21583;-63
2021/04/29 10:57:59;;;;;;;9.15;5.05;;;;;;;15.78;36.22;100336.92;1806558;78;21464;-63
2021/04/29 11:00:29;;;;;;;8.48;5.67;;;;;;;15.70;36.04;100350.24;1788167;79;21086;-62
2021/04/29 11:03:01;;;;;;;9.35;5.25;;;;;;;15.57;36.38;100338.50;1779692;79;21329;-62
2021/04/29 11:05:33;;;;;;;5.58;4.90;;;;;;;15.51;36.56;100341.53;1774093;80;20959;-63
2021/04/29 11:08:07;;;;;;;6.90;5.28;;;;;;;15.52;36.58;100337.95;1781006;78;20969;-62
2021/04/29 11:10:37;;;;;;;6.70;5.30;;;;;;;15.57;36.83;100335.40;1778771;79;20995;-63
2021/04/29 11:13:08;;;;;;;5.78;5.25;;;;;;;15.53;36.73;100331.76;1801102;79;21006;-62
2021/04/29 11:15:40;;;;;;;5.20;4.70;;;;;;;15.44;36.94;100332.41;1781899;79;21502;-67
2021/04/29 11:18:15;;;;;;;7.33;4.78;;;;;;;15.38;37.23;100321.87;1788112;78;21567;-66
2021/04/29 11:20:52;;;;;;;5.92;5.00;;;;;;;15.39;37.59;100324.03;1760901;78;21578;-65
2021/04/29 11:23:42;;;;;;;7.45;5.37;;;;;;;15.46;37.59;100325.27;1809951;79;20950;-68
2021/04/29 11:26:19;;;;;;;11.38;5.53;;;;;;;15.54;37.90;100326.88;1799233;78;21483;-64
2021/04/29 11:28:55;;;;;;;5.62;5.00;;;;;;;15.62;37.38;100322.75;1786621;78;21312;-64
2021/04/29 11:31:43;;;;;;;12.88;4.87;;;;;;;15.63;37.09;100316.55;1778723;78;21093;-65
2021/04/29 11:34:14;;;;;;;;;;;;;;;15.61;37.48;100318.92;1788425;77;21010;-67
2021/04/29 11:36:44;;;;;;;6.53;4.87;;;;;;;15.56;37.24;100321.04;1784529;79;20174;-67
2021/04/29 11:39:12;;;;;;;5.45;4.40;;;;;;;15.45;37.33;100319.18;1779755;80;21761;-64
2021/04/29 11:41:41;;;;;;;6.08;4.72;;;;;;;15.42;37.56;100321.19;1793836;79;21596;-66
2021/04/29 11:44:16;;;;;;;6.45;4.50;;;;;;;15.38;37.52;100318.41;1696796;79;21583;-64
2021/04/29 11:46:46;;;;;;;6.47;4.75;;;;;;;15.35;37.54;100314.22;1742844;80;21560;-64
2021/04/29 11:49:15;;;;;;;9.68;4.50;;;;;;;15.34;37.67;100313.86;1776345;80;21037;-63
2021/04/29 11:51:51;;;;;;;4.85;4.22;;;;;;;15.39;37.93;100309.12;1776127;80;22083;-63
2021/04/29 11:54:20;;;;;;;8.93;4.80;;;;;;;15.51;37.85;100308.72;1780129;80;22266;-67
2021/04/29 11:56:51;;;;;;;6.47;4.53;;;;;;;15.62;37.53;100304.85;1779752;80;20971;-63
2021/04/29 11:59:25;;;;;;;4.85;4.30;;;;;;;15.68;37.02;100301.31;1779024;80;21058;-68
2021/04/29 12:01:56;;;;;;;9.97;4.93;;;;;;;15.67;37.19;100295.70;1771770;80;21567;-64
2021/04/29 12:04:26;;;;;;;8.75;5.30;;;;;;;15.68;37.96;100288.66;1773889;79;20993;-63
2021/04/29 12:06:59;;;;;;;6.60;4.70;;;;;;;15.73;37.73;100287.02;1775928;80;22170;-65
2021/04/29 12:09:29;;;;;;;5.87;4.05;;;;;;;15.71;37.47;100282.34;1776399;80;21100;-66
2021/04/29 12:12:17;;;;;;;5.55;3.98;;;;;;;15.66;37.22;100278.27;1776865;80;20891;-65
2021/04/29 12:14:52;;;;;;;10.20;4.97;;;;;;;15.67;36.85;100279.11;1775198;80;21037;-66
2021/04/29 12:17:22;;;;;;;17.48;12.80;;;;;;;15.75;36.92;100276.77;1778193;80;20928;-67
2021/04/29 12:19:53;;;;;;;17.25;12.18;;;;;;;15.80;36.53;100272.48;1779298;80;21279;-66
2021/04/29 12:22:24;;;;;;;7.40;6.60;;;;;;;15.75;36.77;100259.70;1779907;80;21497;-63
2021/04/29 12:24:53;;;;;;;10.00;5.37;;;;;;;15.78;37.26;100257.32;1780235;80;21141;-65
2021/04/29 12:27:23;;;;;;;6.55;4.30;;;;;;;15.87;37.10;100252.23;1788234;78;21033;-65
2021/04/29 12:30:09;;;;;;;8.68;4.95;;;;;;;16.03;37.00;100248.43;1798010;79;21074;-66
2021/04/29 12:32:43;;;;;;;11.25;5.83;;;;;;;16.18;36.96;100248.13;1805465;78;21650;-69
2021/04/29 12:35:12;;;;;;;7.83;4.72;;;;;;;16.29;37.07;100242.89;1777955;79;20978;-64
2021/04/29 12:37:52;;;;;;;8.90;6.50;;;;;;;16.36;37.05;100247.69;1757127;80;20947;-67
2021/04/29 12:40:33;;;;;;;12.43;5.60;;;;;;;16.33;36.85;100240.39;1746679;80;21045;-64
2021/04/29 12:43:21;;;;;;;12.20;6.55;;;;;;;16.27;36.82;100239.55;1757509;80;21009;-68
2021/04/29 12:45:55;;;;;;;13.05;5.00;;;;;;;16.25;37.09;100234.88;1754830;80;23565;-67
2021/04/29 12:48:39;;;;;;;5.03;4.50;;;;;;;16.21;36.74;100222.93;1759181;80;20994;-67
2021/04/29 12:51:16;;;;;;;3.98;3.50;;;;;;;16.23;36.68;100230.70;1744731;81;21727;-67
2021/04/29 12:54:02;;;;;;;4.50;3.45;;;;;;;16.23;36.24;100229.38;1755319;81;21065;-64
2021/04/29 12:56:36;;;;;;;6.28;3.50;;;;;;;16.22;36.12;100223.77;1758363;80;21078;-64
2021/04/29 12:59:12;;;;;;;5.28;4.00;;;;;;;16.21;36.87;100224.24;1772852;81;21184;-62
2021/04/29 13:01:45;;;;;;;4.20;3.80;;;;;;;16.26;36.51;100229.15;1772032;81;20952;-64
2021/04/29 13:04:25;;;;;;;5.80;3.95;;;;;;;16.25;35.96;100219.59;1755325;80;20990;-64
2021/04/29 13:06:55;;;;;;;5.87;3.83;;;;;;;16.25;36.41;100223.06;1752283;80;21190;-64
2021/04/29 13:09:24;;;;;;;4.00;3.35;;;;;;;16.29;36.39;100219.24;1752234;80;21763;-63
2021/04/29 13:11:55;;;;;;;3.85;3.20;;;;;;;16.34;36.04;100214.47;1766329;80;21642;-64
2021/04/29 13:14:29;;;;;;;6.60;4.10;;;;;;;16.42;35.53;100215.65;1738510;82;21097;-65
2021/04/29 13:16:58;;;;;;;4.03;3.60;;;;;;;16.49;35.79;100221.62;1755116;81;20926;-65
2021/04/29 13:19:28;;;;;;;5.12;3.80;;;;;;;16.60;36.03;100215.55;1744443;80;21082;-71
2021/04/29 13:21:57;;;;;;;6.90;3.95;;;;;;;16.75;36.05;100218.80;1746728;81;21010;-65
2021/04/29 13:24:26;;;;;;;4.70;3.85;;;;;;;16.84;35.98;100206.22;1764379;80;23345;-62
2021/04/29 13:26:59;;;;;;;4.47;3.80;;;;;;;16.89;35.90;100202.75;1774642;80;21165;-62
2021/04/29 13:29:30;;;;;;;5.62;4.20;;;;;;;16.90;35.97;100206.56;1772700;80;21001;-66
2021/04/29 13:32:01;;;;;;;5.20;3.70;;;;;;;16.88;35.67;100203.70;1760756;81;20927;-67
2021/04/29 13:34:30;;;;;;;3.77;3.42;;;;;;;16.83;35.69;100197.48;1775890;78;21489;-63
2021/04/29 13:36:59;;;;;;;3.87;3.58;;;;;;;16.80;35.57;100195.10;1778413;80;22794;-65
2021/04/29 13:39:27;;;;;;;4.75;4.12;;;;;;;16.75;35.38;100192.50;1778980;78;21622;-66
2021/04/29 13:41:56;;;;;;;6.25;5.42;;;;;;;16.65;35.61;100188.45;1760597;80;21591;-63
2021/04/29 13:44:25;;;;;;;4.87;4.47;;;;;;;16.56;36.10;100189.97;1779639;80;21608;-62
2021/04/29 13:46:53;;;;;;;4.53;4.10;;;;;;;16.45;36.22;100190.44;1779197;79;21017;-66
2021/04/29 13:49:22;;;;;;;5.15;4.40;;;;;;;16.34;36.39;100184.73;1807196;78;21196;-65
2021/04/29 13:51:51;;;;;;;3.87;3.58;;;;;;;16.27;36.70;100179.11;1792947;78;21621;-64
2021/04/29 13:54:20;;;;;;;5.03;4.05;;;;;;;16.20;36.81;100175.28;1780094;80;21011;-68
2021/04/29 13:56:49;;;;;;;5.20;4.65;;;;;;;16.13;37.34;100173.23;1780254;80;20935;-67
2021/04/29 13:59:17;;;;;;;7.28;4.95;;;;;;;16.09;36.97;100182.30;1777524;80;20986;-67
2021/04/29 14:01:50;;;;;;;4.92;4.25;;;;;;;16.00;36.84;100170.23;1800541;78;21199;-62
2021/04/29 14:04:19;;;;;;;6.72;5.55;;;;;;;15.91;37.44;100167.02;1783617;78;21588;-64
2021/04/29 14:06:48;;;;;;;6.55;4.87;;;;;;;15.86;37.83;100170.46;1780563;80;21369;-65
2021/04/29 14:09:16;;;;;;;7.55;4.55;;;;;;;15.85;37.96;100158.28;1795457;78;21663;-64
2021/04/29 14:11:48;;;;;;;6.03;4.45;;;;;;;15.85;37.88;100155.66;1750395;82;21633;-63
2021/04/29 14:14:15;;;;;;;5.28;4.50;;;;;;;15.85;38.40;100157.45;1750729;82;22433;-65
2021/04/29 14:16:44;;;;;;;7.37;4.35;;;;;;;15.85;38.61;100150.88;1780929;78;21634;-64
2021/04/29 14:19:16;;;;;;;6.20;4.67;;;;;;;15.87;38.38;100144.56;1820493;78;21587;-64
2021/04/29 14:21:44;;;;;;;5.33;4.83;;;;;;;15.90;38.26;100150.89;1819947;78;21674;-65
2021/04/29 14:24:13;;;;;;;5.85;5.25;;;;;;;15.90;38.35;100146.12;1819880;78;21642;-65
2021/04/29 14:26:41;;;;;;;8.25;4.90;;;;;;;15.89;38.29;100136.56;1821020;78;21352;-65
2021/04/29 14:29:10;;;;;;;6.20;4.70;;;;;;;15.87;38.32;100143.25;1821143;78;21581;-64
2021/04/29 14:31:38;;;;;;;8.20;5.40;;;;;;;15.83;38.67;100147.53;1821210;78;21499;-65
2021/04/29 14:34:07;;;;;;;5.55;4.87;;;;;;;15.78;38.55;100140.01;1818632;78;21615;-65
2021/04/29 14:36:36;;;;;;;7.45;4.72;;;;;;;15.75;38.80;100140.71;1807668;79;21550;-65
2021/04/29 14:39:04;;;;;;;7.62;5.22;;;;;;;15.69;38.70;100139.38;1807701;79;22095;-64
2021/04/29 14:41:34;;;;;;;5.22;4.72;;;;;;;15.61;38.79;100137.80;1807828;79;20941;-65
2021/04/29 14:44:04;;;;;;;6.87;5.60;;;;;;;15.54;39.11;100128.72;1807961;79;21005;-65
2021/04/29 14:46:32;;;;;;;6.65;5.80;;;;;;;15.48;39.48;100123.92;1806214;79;21150;-65
2021/04/29 14:49:01;;;;;;;8.28;5.92;;;;;;;15.43;39.61;100131.30;1807888;79;21500;-64
2021/04/29 14:51:31;;;;;;;6.15;5.50;;;;;;;15.35;39.58;100114.33;1807840;79;22878;-64
2021/04/29 14:53:59;;;;;;;6.90;5.10;;;;;;;15.32;40.20;100119.81;1807921;79;21495;-65
2021/04/29 14:56:28;;;;;;;6.20;5.60;;;;;;;15.30;40.26;100113.00;1807754;79;21495;-65
2021/04/29 14:58:56;;;;;;;6.83;5.78;;;;;;;15.30;40.32;100110.38;1802620;79;21566;-65
2021/04/29 15:01:25;;;;;;;9.43;6.50;;;;;;;15.26;40.27;100112.39;1745852;82;21582;-64
2021/04/29 15:03:53;;;;;;;7.17;6.42;;;;;;;15.25;40.35;100113.34;1745837;82;22141;-64
2021/04/29 15:06:23;;;;;;;7.42;5.95;;;;;;;15.24;40.46;100110.36;1746464;79;21657;-64
2021/04/29 15:08:51;;;;;;;6.75;6.05;;;;;;;15.26;40.67;100109.77;1807460;79;21322;-63
